Time;durP1;ratioP1;P1;durP2;ratioP2;P2;SDS_P1;SDS_P2;PMS_P1;PMS_P2;Temp;Humidity;BMP_temperature;BMP_pressure;BME280_temperature;BME280_humidity;BME280_pressure;Samples;Min_cycle;Max_cycle;Signal;HPM_P1;HPM_P2
2024/02/09 00:00:21;;;;;;;5.40;1.57;;;14.80;99.90;;;14.88;58.28;98579.22;4869904;28;98834;-39
2024/02/09 00:02:48;;;;;;;4.50;1.83;;;14.70;99.90;;;14.92;58.21;98570.03;4871913;28;99244;-38
2024/02/09 00:05:15;;;;;;;3.53;1.80;;;14.80;99.90;;;14.76;63.87;98575.00;4879507;28;106447;-36
2024/02/09 00:07:45;;;;;;;4.03;1.47;;;14.60;99.90;;;14.79;58.85;98564.94;4861654;28;98492;-37
2024/02/09 00:10:18;;;;;;;4.13;1.50;;;14.60;99.90;;;14.77;62.61;98566.91;4871887;28;101228;-38
2024/02/09 00:12:45;;;;;;;4.07;1.77;;;14.60;99.90;;;14.62;63.73;98568.22;4868953;28;104533;-37
2024/02/09 00:15:11;;;;;;;3.57;1.40;;;14.40;99.90;;;14.48;64.57;98561.41;4863936;28;97794;-38
2024/02/09 00:17:37;;;;;;;5.93;1.37;;;14.30;99.90;;;14.43;63.08;98568.88;4859697;28;100288;-38
2024/02/09 00:20:10;;;;;;;6.70;1.83;;;14.20;99.90;;;14.39;62.80;98559.50;4877307;28;101045;-38
2024/02/09 00:22:37;;;;;;;3.57;1.50;;;14.20;99.90;;;14.37;65.05;98556.13;4867882;28;98024;-37
2024/02/09 00:25:10;;;;;;;5.20;1.40;;;14.10;99.90;;;14.33;66.49;98552.06;4888461;28;99089;-37
2024/02/09 00:27:39;;;;;;;4.13;1.57;;;14.10;99.90;;;14.26;67.29;98556.19;4874964;28;97696;-38
2024/02/09 00:30:07;;;;;;;5.73;1.57;;;14.10;99.90;;;14.28;65.31;98548.94;4878880;28;98744;-38
2024/02/09 00:32:34;;;;;;;5.73;1.60;;;14.10;99.90;;;14.21;67.11;98542.50;4847021;28;98295;-38
2024/02/09 00:35:00;;;;;;;6.03;1.87;;;14.00;99.90;;;14.16;67.09;98539.38;4850159;28;97646;-37
2024/02/09 00:37:26;;;;;;;2.53;1.73;;;14.00;99.90;;;14.15;66.17;98533.22;4855547;28;97791;-38
2024/02/09 00:39:53;;;;;;;6.60;1.70;;;13.90;99.90;;;14.15;63.17;98527.91;4848614;28;101154;-37
2024/02/09 00:42:20;;;;;;;9.67;1.93;;;13.90;99.90;;;14.12;68.44;98524.69;4875472;28;101598;-38
2024/02/09 00:44:46;;;;;;;3.23;1.17;;;13.90;99.90;;;14.17;62.50;98518.03;4865385;28;99861;-39
2024/02/09 00:47:12;;;;;;;10.00;1.93;;;13.90;99.90;;;14.13;65.66;98513.13;4864681;28;102068;-37
2024/02/09 00:49:41;;;;;;;6.03;1.43;;;13.90;99.90;;;14.13;66.29;98502.50;4849725;28;102247;-39
2024/02/09 00:52:08;;;;;;;3.70;1.60;;;13.90;99.90;;;14.18;66.02;98508.28;4816881;28;99220;-38
2024/02/09 00:54:34;;;;;;;5.37;2.07;;;14.00;99.90;;;14.20;62.38;98509.00;4862947;28;104633;-38
2024/02/09 00:57:05;;;;;;;4.93;1.13;;;14.00;99.90;;;14.26;62.20;98503.16;4856310;28;113876;-40
2024/02/09 00:59:31;;;;;;;5.77;1.50;;;14.00;99.90;;;14.26;63.33;98492.56;4852823;28;106773;-37
2024/02/09 01:01:58;;;;;;;4.00;1.47;;;14.00;99.90;;;14.17;68.17;98493.31;4855469;28;100309;-37
2024/02/09 01:04:27;;;;;;;3.43;1.63;;;14.00;99.90;;;14.09;68.51;98487.84;4854286;28;100370;-38
2024/02/09 01:06:56;;;;;;;8.23;2.17;;;13.90;99.90;;;13.99;69.65;98479.81;4858731;28;98737;-38
2024/02/09 01:09:23;;;;;;;3.00;1.63;;;13.80;99.90;;;13.91;70.07;98477.81;4845990;28;129530;-37
2024/02/09 01:11:49;;;;;;;7.03;1.60;;;13.80;99.90;;;13.96;66.92;98467.66;4913119;28;104717;-38
2024/02/09 02:45:12;;;;;;;7.33;2.27;;;13.70;99.90;;;13.92;67.08;98354.97;4915033;28;113139;-37
2024/02/09 02:47:40;;;;;;;6.30;1.80;;;13.80;99.90;;;13.90;65.85;98343.66;4904001;28;99524;-37
2024/02/09 03:06:36;;;;;;;2.63;1.30;;;13.80;99.90;;;14.08;65.55;98314.72;4898476;28;98917;-38
2024/02/09 03:09:04;;;;;;;5.90;1.50;;;13.90;99.90;;;14.11;64.04;98305.66;4926007;28;106844;-36
2024/02/09 03:11:29;;;;;;;2.70;1.57;;;13.90;99.90;;;14.15;64.09;98297.28;4905543;28;110380;-37
2024/02/09 03:13:55;;;;;;;1.40;0.87;;;14.00;99.90;;;14.13;62.85;98299.25;4928787;28;106406;-36
2024/02/09 03:16:21;;;;;;;6.77;2.17;;;14.00;99.90;;;14.13;63.89;98290.44;4919909;28;97532;-36
2024/02/09 03:18:47;;;;;;;2.63;0.90;;;13.90;99.90;;;14.17;63.43;98291.84;4929930;28;98030;-38
2024/02/09 03:21:25;;;;;;;3.63;1.30;;;14.00;99.90;;;14.12;66.44;98283.47;4926727;28;99828;-36
2024/02/09 03:23:56;;;;;;;4.13;1.37;;;14.00;99.90;;;14.17;65.10;98286.56;4926136;28;97610;-36
2024/02/09 03:26:23;;;;;;;3.87;1.20;;;14.00;99.90;;;14.24;61.29;98299.16;4898553;28;97697;-38
2024/02/09 03:28:52;;;;;;;2.40;0.93;;;14.00;99.90;;;14.30;61.25;98281.84;4938126;28;98405;-37
2024/02/09 03:31:18;;;;;;;2.13;1.30;;;14.10;99.90;;;14.19;65.57;98284.63;4885162;28;99031;-38
2024/02/09 03:33:44;;;;;;;3.20;0.93;;;14.10;99.90;;;14.28;62.75;98281.16;4915824;28;99167;-38
2024/02/09 03:36:20;;;;;;;2.73;1.17;;;14.10;99.90;;;14.29;63.87;98280.19;4850806;28;97303;-38
2024/02/09 03:38:47;;;;;;;2.30;1.50;;;14.20;99.90;;;14.26;62.03;98289.25;4920643;28;99352;-36
2024/02/09 03:41:13;;;;;;;7.00;1.33;;;14.10;99.90;;;14.30;63.42;98290.63;4888620;28;97289;-37
2024/02/09 03:43:39;;;;;;;4.50;1.67;;;14.20;99.90;;;14.33;64.99;98281.59;4915923;28;101474;-37
2024/02/09 03:46:05;;;;;;;7.10;1.63;;;14.20;99.90;;;14.32;62.97;98279.94;4909648;28;115524;-36
2024/02/09 03:48:32;;;;;;;2.57;1.17;;;14.10;99.90;;;14.32;61.62;98279.94;4910399;28;101701;-38
2024/02/09 03:50:58;;;;;;;3.53;1.03;;;14.10;99.90;;;14.27;64.99;98285.63;4910191;28;97413;-37
2024/02/09 03:53:23;;;;;;;2.23;1.10;;;14.10;99.90;;;14.17;66.69;98282.09;4905446;28;110772;-37
2024/02/09 03:55:49;;;;;;;3.03;1.40;;;14.10;99.90;;;14.21;65.91;98282.69;4902293;28;113517;-36
2024/02/09 03:58:19;;;;;;;2.40;1.27;;;14.00;99.90;;;14.21;64.45;98283.50;4909766;28;115077;-38
2024/02/09 04:00:45;;;;;;;2.23;1.10;;;14.00;99.90;;;14.07;67.20;98289.19;4904782;28;101147;-36
2024/02/09 04:03:12;;;;;;;3.30;1.10;;;13.90;99.90;;;14.02;66.34;98275.47;4906415;28;109854;-37
2024/02/09 04:05:37;;;;;;;1.60;1.10;;;13.90;99.90;;;13.98;67.14;98279.38;4891926;28;97175;-37
2024/02/09 04:08:04;;;;;;;3.70;1.27;;;13.80;99.90;;;14.02;67.04;98287.88;4889041;28;99210;-37
2024/02/09 04:10:30;;;;;;;1.60;0.87;;;13.80;99.90;;;13.93;68.05;98279.78;4907178;28;103979;-36
2024/02/09 04:12:58;;;;;;;3.53;0.97;;;13.80;99.90;;;13.98;64.03;98277.56;4940240;28;97483;-36
2024/02/09 04:15:25;;;;;;;3.60;1.33;;;13.70;99.90;;;13.93;67.33;98271.00;4911904;28;97231;-38
2024/02/09 04:17:51;;;;;;;1.80;0.90;;;13.70;99.90;;;13.98;67.20;98277.56;4908650;28;102171;-37
2024/02/09 04:20:17;;;;;;;3.63;1.00;;;13.80;99.90;;;13.93;65.49;98279.78;4901375;28;104639;-37
2024/02/09 04:22:43;;;;;;;2.30;1.10;;;13.70;99.90;;;13.93;67.66;98279.78;4923133;28;98366;-35
2024/02/09 04:25:09;;;;;;;1.10;0.97;;;13.70;99.90;;;13.96;64.59;98279.50;4921667;28;97398;-36
2024/02/09 04:27:36;;;;;;;2.30;1.00;;;13.70;99.90;;;14.03;65.20;98279.81;4918926;28;124628;-37
2024/02/09 04:30:01;;;;;;;2.30;0.90;;;13.80;99.90;;;13.94;67.38;98275.31;4911276;28;99075;-37
2024/02/09 04:32:29;;;;;;;2.37;0.90;;;13.80;99.90;;;13.93;67.93;98269.19;4913577;28;97251;-37
2024/02/09 04:34:55;;;;;;;3.47;0.83;;;13.80;99.90;;;13.96;66.32;98273.38;4906508;28;97520;-39
2024/02/09 04:37:21;;;;;;;1.70;0.70;;;13.70;99.90;;;13.96;64.81;98268.91;4904085;28;110228;-37
2024/02/09 04:39:48;;;;;;;5.60;0.87;;;13.70;99.90;;;13.99;66.29;98267.81;4905744;28;112649;-37
2024/02/09 04:42:14;;;;;;;0.87;0.70;;;13.80;99.90;;;14.08;64.17;98267.00;4910495;28;97631;-37
2024/02/09 04:44:40;;;;;;;3.83;0.80;;;13.80;99.90;;;14.16;62.57;98266.31;4911225;28;108843;-37
2024/02/09 04:47:05;;;;;;;1.57;0.97;;;13.90;99.90;;;14.21;63.32;98261.47;4914286;28;123155;-37
2024/02/09 04:49:31;;;;;;;1.63;0.83;;;14.00;99.90;;;14.21;63.58;98264.13;4904061;28;116364;-38
2024/02/09 04:51:57;;;;;;;1.60;0.90;;;14.00;99.90;;;14.32;60.31;98253.41;4899599;28;99628;-41
2024/02/09 04:54:24;;;;;;;1.43;0.70;;;14.10;99.90;;;14.30;63.57;98248.22;4905539;28;97307;-39
2024/02/09 04:56:49;;;;;;;2.30;1.03;;;14.10;99.90;;;14.31;64.89;98251.72;4913316;28;99803;-36
2024/02/09 04:59:15;;;;;;;1.50;0.90;;;14.10;99.90;;;14.32;62.22;98248.13;4927593;28;97605;-36
2024/02/09 05:01:42;;;;;;;2.53;0.70;;;14.10;99.90;;;14.36;62.17;98246.84;4927751;28;106625;-38
2024/02/09 05:04:12;;;;;;;0.73;0.50;;;14.10;99.90;;;14.36;63.74;98248.66;4909680;28;97247;-36
2024/02/09 05:06:39;;;;;;;2.20;0.70;;;14.10;99.90;;;14.45;59.37;98242.56;4915537;28;98326;-38
2024/02/09 05:09:07;;;;;;;1.03;0.50;;;14.20;99.90;;;14.44;60.51;98246.19;4919659;28;108223;-39
2024/02/09 05:11:36;;;;;;;2.53;0.70;;;14.30;99.90;;;14.50;59.60;98241.19;4930212;28;105338;-37
2024/02/09 05:14:04;;;;;;;2.43;0.77;;;14.30;99.90;;;14.47;63.66;98241.47;4920855;28;98035;-36
2024/02/09 05:16:50;;;;;;;1.20;0.70;;;14.40;99.90;;;14.52;60.99;98249.84;4916041;28;98190;-37
2024/02/09 05:19:15;;;;;;;1.37;0.97;;;14.40;99.90;;;14.59;59.67;98250.94;4910625;28;100730;-38
2024/02/09 05:21:44;;;;;;;3.37;0.63;;;14.40;99.90;;;14.50;63.38;98251.78;4921314;28;107322;-39
2024/02/09 05:24:10;;;;;;;1.27;0.50;;;14.40;99.90;;;14.41;63.28;98255.22;4921303;28;105502;-38
2024/02/09 05:26:36;;;;;;;1.50;0.77;;;14.30;99.90;;;14.38;64.21;98252.84;4908689;28;98425;-38
2024/02/09 05:29:02;;;;;;;2.37;0.70;;;14.20;99.90;;;14.38;62.53;98242.25;4908007;28;97512;-37
2024/02/09 05:31:28;;;;;;;2.20;0.80;;;14.20;99.90;;;14.39;62.70;98241.28;4903811;28;98812;-37
2024/02/09 05:33:54;;;;;;;1.20;0.50;;;14.20;99.90;;;14.32;61.67;98242.81;4908724;28;99268;-37
2024/02/09 05:36:25;;;;;;;1.37;0.90;;;14.10;99.90;;;14.27;65.10;98242.34;4914759;28;121689;-36
2024/02/09 05:38:54;;;;;;;1.20;0.77;;;14.10;99.90;;;14.19;65.19;98243.06;4907658;28;101779;-36
2024/02/09 05:41:20;;;;;;;2.40;0.60;;;14.10;99.90;;;14.26;61.43;98243.34;4919531;28;97283;-35
2024/02/09 05:43:49;;;;;;;2.13;1.07;;;14.10;99.90;;;14.32;61.65;98242.81;4904754;28;101930;-38
2024/02/09 05:46:18;;;;;;;4.83;0.60;;;14.10;99.90;;;14.32;60.91;98242.81;4922559;28;106398;-36
2024/02/09 05:48:45;;;;;;;1.60;0.50;;;14.10;99.90;;;14.33;63.54;98233.88;4923053;28;97687;-35
2024/02/09 05:51:16;;;;;;;1.90;0.80;;;14.20;99.90;;;14.28;64.55;98236.06;4904540;28;97453;-39
2024/02/09 05:53:42;;;;;;;5.13;1.17;;;14.10;99.90;;;14.31;64.31;98241.09;4932943;28;97398;-38
2024/02/09 05:56:20;;;;;;;5.07;1.17;;;14.10;99.90;;;14.35;64.35;98237.22;4921698;28;98991;-34
2024/02/09 05:58:47;;;;;;;2.57;0.80;;;14.20;99.90;;;14.35;63.93;98239.88;4908788;28;99059;-37
2024/02/09 06:01:15;;;;;;;0.73;0.73;;;14.20;99.90;;;14.27;65.83;98234.41;4929700;28;98653;-35
2024/02/09 06:03:44;;;;;;;0.77;0.77;;;14.10;99.90;;;14.22;66.04;98231.34;4915377;28;97680;-36
2024/02/09 06:06:12;;;;;;;0.60;0.60;;;14.10;99.90;;;14.30;61.04;98239.44;4914967;28;105467;-36
2024/02/09 06:08:45;;;;;;;2.83;0.73;;;14.00;99.90;;;14.38;61.02;98228.16;4910108;28;99313;-35
2024/02/09 06:11:12;;;;;;;0.97;0.67;;;14.20;99.90;;;14.31;64.42;98235.81;4890745;28;97852;-34
2024/02/09 06:13:37;;;;;;;1.37;0.50;;;14.20;99.90;;;14.32;63.98;98232.19;4903203;28;97475;-34
2024/02/09 06:16:03;;;;;;;1.43;0.80;;;14.10;99.90;;;14.30;62.03;98234.13;4924944;28;128254;-35
2024/02/09 06:18:29;;;;;;;0.90;0.40;;;14.10;99.90;;;14.28;64.23;98225.47;4903626;28;98689;-37
2024/02/09 06:20:56;;;;;;;0.73;0.50;;;14.10;99.90;;;14.31;63.58;98225.19;4921155;28;97451;-37
2024/02/09 06:23:26;;;;;;;1.90;0.40;;;14.10;99.90;;;14.34;64.23;98224.09;4899994;28;97392;-35
2024/02/09 06:25:52;;;;;;;1.63;0.40;;;14.20;99.90;;;14.52;59.42;98212.72;4905426;28;103278;-38
2024/02/09 06:28:21;;;;;;;0.43;0.30;;;14.30;99.90;;;14.59;59.37;98208.50;4946794;28;98894;-42
2024/02/09 06:30:47;;;;;;;2.00;0.50;;;14.50;99.90;;;14.65;58.88;98207.13;4908501;28;97312;-36
2024/02/09 06:33:19;;;;;;;1.67;0.70;;;14.50;99.90;;;14.76;58.06;98208.81;4907496;28;97128;-35
2024/02/09 06:35:45;;;;;;;0.77;0.40;;;14.60;99.90;;;14.81;58.51;98201.25;4912052;28;99577;-35
2024/02/09 06:38:17;;;;;;;2.43;0.80;;;14.70;99.90;;;14.80;59.70;98210.19;4923597;28;97327;-37
2024/02/09 06:40:43;;;;;;;2.10;0.70;;;14.70;99.90;;;14.79;59.31;98208.53;4904134;28;97793;-38
2024/02/09 06:43:09;;;;;;;2.83;0.90;;;14.70;99.90;;;14.81;60.28;98201.25;4901062;28;97364;-37
2024/02/09 06:45:35;;;;;;;2.13;0.90;;;14.70;99.90;;;14.80;60.15;98210.19;4917167;28;104526;-35
2024/02/09 06:48:05;;;;;;;2.70;0.60;;;14.60;99.90;;;14.79;58.86;98206.72;4929575;28;104843;-38
2024/02/09 06:50:35;;;;;;;0.73;0.60;;;14.60;99.90;;;14.83;58.11;98210.75;4894789;28;99416;-35
2024/02/09 06:53:05;;;;;;;1.20;0.70;;;14.60;99.90;;;14.85;59.62;98213.25;4921542;28;97591;-35
2024/02/09 06:55:36;;;;;;;1.00;0.70;;;14.70;99.90;;;14.76;60.30;98208.81;4926735;28;98066;-36
2024/02/09 06:58:02;;;;;;;4.87;2.90;;;14.60;99.90;;;14.58;63.97;98221.91;4901884;28;97307;-35
2024/02/09 07:00:28;;;;;;;1.13;0.63;;;14.50;99.90;;;14.61;61.59;98215.50;4903509;28;99176;-35
2024/02/09 07:02:55;;;;;;;3.03;1.30;;;14.40;99.90;;;14.61;62.07;98232.28;4904739;28;101735;-37
2024/02/09 07:05:22;;;;;;;3.67;2.27;;;14.40;99.90;;;14.52;61.99;98227.78;4903016;28;103188;-39
2024/02/09 07:07:53;;;;;;;0.53;0.53;;;14.30;99.90;;;14.49;62.69;98228.91;4918789;28;99516;-35
2024/02/09 07:10:22;;;;;;;1.43;0.50;;;14.30;99.90;;;14.46;60.45;98228.31;4917318;28;97462;-39
2024/02/09 07:12:50;;;;;;;2.00;0.77;;;14.20;99.90;;;14.38;64.33;98236.94;4914512;28;97433;-34
2024/02/09 07:15:16;;;;;;;0.80;0.60;;;14.20;99.90;;;14.44;61.51;98225.81;4909167;28;100054;-35
2024/02/09 07:17:45;;;;;;;1.63;1.00;;;14.20;99.90;;;14.43;62.98;98223.25;4907235;28;99338;-35
2024/02/09 07:20:12;;;;;;;1.07;0.53;;;14.20;99.90;;;14.49;61.12;98218.28;4918165;28;97395;-36
2024/02/09 07:22:38;;;;;;;2.20;0.50;;;14.30;99.90;;;14.43;64.57;98224.09;4918012;28;97331;-36
2024/02/09 07:25:04;;;;;;;1.10;0.50;;;14.30;99.90;;;14.44;64.49;98220.50;4902769;28;110459;-35
2024/02/09 07:27:30;;;;;;;2.23;1.00;;;14.30;99.90;;;14.38;65.30;98221.03;4911651;28;105706;-36
2024/02/09 07:29:56;;;;;;;1.73;0.97;;;14.30;99.90;;;14.45;62.92;98222.19;4908149;28;107889;-36
2024/02/09 07:32:23;;;;;;;2.07;0.93;;;14.30;99.90;;;14.41;63.59;98222.56;4924661;28;97551;-37
2024/02/09 07:34:48;;;;;;;3.60;1.33;;;14.30;99.90;;;14.46;63.00;98217.72;4902482;28;97420;-36
2024/02/09 07:37:17;;;;;;;1.47;0.80;;;14.30;99.90;;;14.45;60.79;98216.88;4898876;28;123279;-36
2024/02/09 07:39:43;;;;;;;0.70;0.43;;;14.30;99.90;;;14.41;63.71;98215.44;4908067;28;117832;-36
2024/02/09 07:42:09;;;;;;;4.83;0.70;;;14.30;99.90;;;14.44;64.36;98217.00;4915865;28;98944;-37
2024/02/09 07:44:36;;;;;;;2.37;0.70;;;14.30;99.90;;;14.37;65.41;98219.34;4907443;28;98038;-38
2024/02/09 07:47:05;;;;;;;1.73;0.80;;;14.20;99.90;;;14.32;65.47;98226.03;4915170;28;99369;-37
2024/02/09 07:49:34;;;;;;;2.97;0.80;;;14.20;99.90;;;14.27;64.19;98218.50;4904487;28;99707;-38
2024/02/09 07:52:01;;;;;;;1.03;0.63;;;14.10;99.90;;;14.32;63.21;98213.63;4908175;28;97396;-36
2024/02/09 07:54:30;;;;;;;3.33;0.60;;;14.20;99.90;;;14.31;64.39;98214.59;4933476;28;97935;-36
2024/02/09 07:56:56;;;;;;;1.70;0.80;;;14.20;99.90;;;14.30;65.42;98213.75;4925878;28;101695;-35
2024/02/09 07:59:23;;;;;;;1.63;0.73;;;14.10;99.90;;;14.26;63.26;98211.53;4905987;28;98403;-37
2024/02/09 08:01:51;;;;;;;1.03;0.70;;;14.10;99.90;;;14.26;63.58;98209.69;4910507;28;105790;-36
2024/02/09 08:04:19;;;;;;;0.97;0.60;;;14.10;99.90;;;14.29;61.63;98208.59;4907721;28;99464;-36
2024/02/09 08:06:45;;;;;;;4.63;1.03;;;14.10;99.90;;;14.21;65.98;98209.28;4910562;28;99098;-37
2024/02/09 08:09:11;;;;;;;1.50;0.87;;;14.10;99.90;;;14.05;67.93;98218.75;4906619;28;97453;-36
2024/02/09 08:11:38;;;;;;;1.53;0.73;;;14.00;99.90;;;14.21;63.24;98213.75;4922332;28;97553;-38
2024/02/09 08:14:06;;;;;;;0.60;0.40;;;14.10;99.90;;;14.23;62.78;98211.81;4898445;28;98247;-36
2024/02/09 08:16:32;;;;;;;3.33;0.93;;;14.10;99.90;;;14.21;65.72;98219.06;4913998;28;99981;-38
2024/02/09 08:18:59;;;;;;;1.83;0.70;;;14.20;99.90;;;14.18;64.19;98219.34;4914264;28;97274;-35
2024/02/09 08:21:25;;;;;;;0.97;0.67;;;14.10;99.90;;;14.26;65.82;98222.13;4907581;28;97487;-36
2024/02/09 08:23:51;;;;;;;0.40;0.40;;;14.20;99.90;;;14.28;63.97;98220.16;4920392;28;106729;-35
2024/02/09 08:26:17;;;;;;;1.83;0.87;;;14.20;99.90;;;14.23;62.98;98225.91;4911243;28;98984;-35
2024/02/09 08:28:47;;;;;;;0.50;0.40;;;14.10;99.90;;;14.23;62.89;98222.41;4944504;28;97575;-35
2024/02/09 08:31:17;;;;;;;3.53;1.10;;;14.10;99.90;;;14.19;67.19;98226.31;4900343;28;97503;-38
2024/02/09 08:33:44;;;;;;;1.33;0.80;;;14.10;99.90;;;14.23;63.32;98227.72;4926769;28;98424;-36
2024/02/09 08:36:16;;;;;;;3.30;0.70;;;14.20;99.90;;;14.20;65.84;98244.72;4895996;28;100028;-37
2024/02/09 08:38:44;;;;;;;3.70;0.90;;;14.10;99.90;;;14.23;65.62;98233.00;4907173;28;97668;-35
2024/02/09 08:41:10;;;;;;;2.23;0.70;;;14.10;99.90;;;14.23;65.87;98235.66;4931976;28;97527;-35
2024/02/09 08:43:36;;;;;;;1.90;0.70;;;14.10;99.90;;;14.16;68.22;98242.47;4916316;28;100099;-37
2024/02/09 08:46:02;;;;;;;5.80;1.43;;;14.10;99.90;;;14.18;67.73;98243.19;4895597;28;99554;-36
2024/02/09 08:48:28;;;;;;;1.93;0.97;;;14.10;99.90;;;14.21;67.19;98248.22;4927315;28;97395;-37
2024/02/09 08:50:54;;;;;;;0.93;0.50;;;14.10;99.90;;;14.27;64.64;98245.84;4899793;28;116022;-36
2024/02/09 08:53:20;;;;;;;4.23;1.20;;;14.20;99.90;;;14.35;63.59;98239.88;4919403;28;99573;-37
2024/02/09 08:55:46;;;;;;;2.40;0.83;;;14.30;99.90;;;14.38;65.54;98247.56;4874966;28;102300;-37
2024/02/09 08:58:12;;;;;;;1.80;0.90;;;14.30;99.90;;;14.40;64.41;98242.09;4872658;28;108456;-36
2024/02/09 09:00:40;;;;;;;2.60;0.90;;;14.30;99.90;;;14.38;66.82;98242.25;4835015;28;97456;-36
2024/02/09 09:03:06;;;;;;;3.87;1.03;;;14.40;99.90;;;14.37;67.41;98240.56;4827434;28;136733;-39
2024/02/09 09:05:32;;;;;;;3.63;0.90;;;14.30;99.90;;;14.35;66.89;98247.84;4851582;28;98518;-36
2024/02/09 09:08:00;;;;;;;1.37;0.80;;;14.30;99.90;;;14.47;63.64;98236.16;4843926;28;101778;-37
2024/02/09 09:10:26;;;;;;;1.53;0.80;;;14.30;99.90;;;14.48;64.26;98245.78;4857575;28;99859;-39
2024/02/09 09:12:52;;;;;;;2.20;0.90;;;14.40;99.90;;;14.58;61.60;98243.13;4866841;28;107889;-37
2024/02/09 09:15:18;;;;;;;0.67;0.60;;;14.40;99.90;;;14.68;60.02;98237.84;4866057;28;106622;-37
2024/02/09 09:17:43;;;;;;;1.20;1.10;;;14.50;99.90;;;14.71;63.57;98242.88;4866355;28;115364;-35
2024/02/09 09:20:10;;;;;;;0.50;0.30;;;14.60;99.90;;;14.84;58.91;98244.28;4863725;28;110925;-37
2024/02/09 09:22:38;;;;;;;0.83;0.60;;;14.80;99.90;;;14.96;60.05;98230.88;4875490;28;101077;-36
2024/02/09 09:25:07;;;;;;;1.93;0.40;;;15.00;99.90;;;15.05;59.54;98236.19;4861767;28;97525;-37
2024/02/09 09:27:36;;;;;;;0.80;0.77;;;15.20;99.90;;;15.16;60.67;98233.34;4838610;28;101156;-36
2024/02/09 09:30:04;;;;;;;0.97;0.53;;;15.30;99.90;;;15.23;58.24;98238.09;4879039;28;101155;-35
2024/02/09 09:32:34;;;;;;;2.27;0.80;;;15.30;99.90;;;15.24;58.44;98240.63;4882375;28;98721;-38
2024/02/09 09:35:00;;;;;;;0.87;0.80;;;15.30;99.90;;;15.20;60.52;98235.75;4865373;28;101817;-36
2024/02/09 09:37:28;;;;;;;1.87;0.90;;;15.20;99.90;;;15.10;63.48;98244.53;4832474;28;98746;-37
2024/02/09 09:39:54;;;;;;;1.63;0.83;;;15.10;99.90;;;15.11;59.98;98230.28;4868563;28;99230;-36
2024/02/09 09:42:23;;;;;;;2.20;0.67;;;15.10;99.90;;;15.04;62.90;98247.75;4871459;28;101843;-36
2024/02/09 09:44:52;;;;;;;4.60;1.10;;;15.00;99.90;;;15.07;59.81;98244.84;4857789;28;100532;-36
2024/02/09 09:47:23;;;;;;;1.43;0.70;;;15.00;99.90;;;15.07;58.68;98228.91;4832592;28;108106;-38
2024/02/09 09:49:51;;;;;;;0.70;0.70;;;15.00;99.90;;;15.15;58.58;98226.38;4844676;28;100482;-36
2024/02/09 09:52:30;;;;;;;3.33;1.40;;;15.10;99.90;;;15.12;59.89;98224.00;4861632;28;109962;-37
2024/02/09 09:54:59;;;;;;;1.23;0.60;;;15.10;99.90;;;15.13;59.36;98228.31;4838235;28;101572;-38
2024/02/09 09:57:26;;;;;;;1.20;0.80;;;15.20;99.90;;;15.17;57.49;98227.06;4828691;28;101300;-37
2024/02/09 09:59:53;;;;;;;1.33;0.77;;;15.20;99.90;;;15.12;62.25;98234.63;4899224;28;101842;-37
2024/02/09 10:02:21;;;;;;;1.70;0.70;;;15.20;99.90;;;15.10;60.99;98239.22;4862041;28;98529;-37
2024/02/09 10:04:47;;;;;;;4.43;1.67;;;15.10;99.90;;;15.10;62.58;98239.22;4864735;28;100898;-36
2024/02/09 10:07:15;;;;;;;0.97;0.50;;;15.10;99.90;;;15.15;57.94;98236.97;4858939;28;97619;-37
2024/02/09 10:09:42;;;;;;;0.40;0.30;;;15.10;99.90;;;15.28;57.00;98233.19;4870560;28;98228;-38
2024/02/09 10:12:12;;;;;;;1.07;0.80;;;15.30;99.90;;;15.37;57.59;98240.31;4850267;28;126902;-38
2024/02/09 10:14:42;;;;;;;1.20;0.50;;;15.50;99.90;;;15.44;57.60;98241.41;4830666;28;106994;-36
2024/02/09 10:17:22;;;;;;;4.17;0.87;;;15.50;99.90;;;15.45;61.72;98243.06;4858041;28;105129;-37
2024/02/09 10:19:48;;;;;;;0.87;0.70;;;15.60;99.90;;;15.43;58.68;98250.34;4877223;28;100292;-37
2024/02/09 10:22:14;;;;;;;3.10;0.90;;;15.50;99.90;;;15.40;60.93;98242.69;4856546;28;123245;-37
2024/02/09 10:24:41;;;;;;;5.33;0.87;;;15.40;99.90;;;15.32;63.39;98259.31;4862877;28;118477;-38
2024/02/09 10:27:10;;;;;;;2.83;1.20;;;15.30;99.90;;;15.17;65.41;98260.72;4883138;28;98488;-35
2024/02/09 10:29:37;;;;;;;1.77;0.87;;;15.10;99.90;;;15.08;64.14;98266.91;4844719;28;97580;-36
2024/02/09 10:32:07;;;;;;;2.07;1.07;;;15.00;99.90;;;14.92;67.05;98267.47;4855729;28;98356;-38
2024/02/09 10:34:32;;;;;;;2.10;1.00;;;14.90;99.90;;;14.91;65.91;98265.78;4875435;28;97968;-36
2024/02/09 10:36:58;;;;;;;1.60;1.20;;;14.80;99.90;;;14.81;67.90;98270.25;4849309;28;98671;-38
2024/02/09 10:39:27;;;;;;;3.03;1.10;;;14.80;99.90;;;14.87;62.97;98261.72;4866679;28;104500;-36
2024/02/09 10:41:53;;;;;;;6.40;1.37;;;14.70;99.90;;;14.84;62.22;98264.66;4848752;28;101719;-36
2024/02/09 10:44:20;;;;;;;2.77;1.10;;;14.70;99.90;;;14.87;61.00;98264.38;4815752;28;100960;-37
2024/02/09 10:46:47;;;;;;;2.57;1.00;;;14.70;99.90;;;14.84;66.75;98264.66;4833974;28;100512;-36
2024/02/09 10:49:14;;;;;;;2.00;1.23;;;14.70;99.90;;;14.78;67.91;98271.38;4873506;28;97969;-37
2024/02/09 10:51:40;;;;;;;2.73;1.70;;;14.70;99.90;;;14.81;64.84;98270.25;4839760;28;121765;-37
2024/02/09 10:54:19;;;;;;;5.03;1.47;;;14.70;99.90;;;14.77;66.91;98260.91;4885676;28;121101;-36
2024/02/09 10:56:46;;;;;;;1.67;0.90;;;14.70;99.90;;;14.79;64.89;98262.44;4852348;28;101910;-36
2024/02/09 10:59:14;;;;;;;4.57;1.30;;;14.70;99.90;;;14.74;67.94;98259.34;4861668;28;97406;-39
2024/02/09 11:01:40;;;;;;;5.73;1.90;;;14.70;99.90;;;14.73;67.29;98262.13;4852213;28;100735;-37
2024/02/09 11:04:05;;;;;;;3.60;1.70;;;14.60;99.90;;;14.76;64.35;98259.22;4864569;28;98218;-35
2024/02/09 11:06:33;;;;;;;1.13;1.00;;;14.70;99.90;;;14.72;68.28;98265.78;4909520;28;97333;-37
2024/02/09 11:08:59;;;;;;;4.40;1.50;;;14.70;99.90;;;14.73;66.17;98264.78;4908459;28;118792;-37
2024/02/09 11:11:33;;;;;;;5.57;1.50;;;14.70;99.90;;;14.79;65.61;98258.94;4908310;28;116000;-36
2024/02/09 11:14:10;;;;;;;2.60;1.00;;;14.70;99.90;;;14.83;64.00;98263.00;4927099;28;104144;-37
2024/02/09 11:16:44;;;;;;;1.73;1.20;;;14.70;99.90;;;14.81;66.10;98265.78;4910516;28;97504;-36
2024/02/09 11:19:15;;;;;;;3.57;1.40;;;14.70;99.90;;;14.84;64.08;98259.34;4903020;28;99122;-36
2024/02/09 11:22:09;;;;;;;3.10;1.00;;;14.70;99.90;;;14.86;62.51;98257.41;4903014;28;97955;-35
2024/02/09 11:24:35;;;;;;;1.90;0.77;;;14.70;99.90;;;14.84;64.07;98264.66;4916800;28;101689;-37
2024/02/09 11:27:06;;;;;;;2.37;1.53;;;14.70;99.90;;;14.84;66.60;98265.50;4900759;28;97442;-37
2024/02/09 11:29:33;;;;;;;3.13;1.20;;;14.70;99.90;;;14.79;66.52;98256.28;4914801;28;98646;-36
2024/02/09 11:32:04;;;;;;;3.30;1.33;;;14.70;99.90;;;14.75;67.12;98265.47;4929409;28;101693;-37
2024/02/09 11:34:34;;;;;;;2.87;1.30;;;14.70;99.90;;;14.76;65.05;98267.19;4925009;28;101879;-38
2024/02/09 11:37:00;;;;;;;2.10;1.20;;;14.70;99.90;;;14.73;65.32;98262.13;4897496;28;97551;-36
2024/02/09 11:39:33;;;;;;;1.30;0.90;;;14.60;99.90;;;14.64;67.56;98273.59;4915439;28;98310;-36
2024/02/09 11:42:04;;;;;;;6.17;1.47;;;14.60;99.90;;;14.59;67.05;98269.53;4902269;28;105000;-37
2024/02/09 11:44:31;;;;;;;2.00;1.00;;;14.70;99.90;;;14.66;65.79;98271.63;4922433;28;102214;-35
2024/02/09 11:46:57;;;;;;;1.20;0.90;;;14.70;99.90;;;14.59;66.77;98272.16;4900584;28;97485;-36
2024/02/09 11:49:27;;;;;;;2.17;1.00;;;14.60;99.90;;;14.62;64.75;98264.94;4913416;28;97563;-36
2024/02/09 11:52:04;;;;;;;2.73;0.90;;;14.70;99.90;;;14.62;63.17;98270.25;4897258;28;99316;-36
2024/02/09 11:54:30;;;;;;;1.90;1.13;;;14.60;99.90;;;14.65;65.52;98272.63;4908410;28;102067;-36
2024/02/09 11:56:57;;;;;;;6.73;1.60;;;14.70;99.90;;;14.70;67.22;98262.41;4911236;28;97196;-36
2024/02/09 11:59:24;;;;;;;1.57;1.20;;;14.70;99.90;;;14.70;65.82;98262.41;4847831;28;97684;-36
2024/02/09 12:01:53;;;;;;;2.67;1.30;;;14.70;99.90;;;14.70;66.92;98257.13;4861219;28;100715;-37
2024/02/09 12:04:20;;;;;;;1.83;1.23;;;14.80;99.90;;;14.68;67.23;98261.72;4868628;28;97669;-35